sensor_id;sensor_type;location;lat;lon;timestamp;P1;durP1;ratioP1;P2;durP2;ratioP2
32026;SDS011;18543;50.848;4.596;2022-08-21T00:01:50;8.82;;;2.90;;
32026;SDS011;18543;50.848;4.596;2022-08-21T00:04:17;4.82;;;2.80;;
32026;SDS011;18543;50.848;4.596;2022-08-21T00:06:47;4.72;;;3.00;;
32026;SDS011;18543;50.848;4.596;2022-08-21T00:09:15;3.63;;;2.65;;
32026;SDS011;18543;50.848;4.596;2022-08-21T00:11:43;3.53;;;2.42;;
32026;SDS011;18543;50.848;4.596;2022-08-21T00:14:10;5.78;;;2.65;;
32026;SDS011;18543;50.848;4.596;2022-08-21T00:19:06;4.80;;;2.53;;
32026;SDS011;18543;50.848;4.596;2022-08-21T00:21:37;3.90;;;2.40;;
32026;SDS011;18543;50.848;4.596;2022-08-21T00:24:04;3.78;;;2.45;;
32026;SDS011;18543;50.848;4.596;2022-08-21T00:26:32;6.15;;;2.88;;
32026;SDS011;18543;50.848;4.596;2022-08-21T00:29:04;3.92;;;2.40;;
32026;SDS011;18543;50.848;4.596;2022-08-21T00:31:31;5.78;;;2.80;;
32026;SDS011;18543;50.848;4.596;2022-08-21T00:33:59;3.60;;;2.40;;
32026;SDS011;18543;50.848;4.596;2022-08-21T00:36:26;4.07;;;2.80;;
32026;SDS011;18543;50.848;4.596;2022-08-21T00:38:54;4.70;;;2.80;;
32026;SDS011;18543;50.848;4.596;2022-08-21T00:41:21;4.90;;;2.65;;
32026;SDS011;18543;50.848;4.596;2022-08-21T00:44:04;5.25;;;2.80;;
32026;SDS011;18543;50.848;4.596;2022-08-21T00:46:36;3.97;;;2.53;;
32026;SDS011;18543;50.848;4.596;2022-08-21T00:49:04;5.03;;;2.53;;
32026;SDS011;18543;50.848;4.596;2022-08-21T00:51:53;4.20;;;2.92;;
32026;SDS011;18543;50.848;4.596;2022-08-21T00:54:24;5.18;;;2.90;;
32026;SDS011;18543;50.848;4.596;2022-08-21T00:56:54;7.00;;;3.15;;
32026;SDS011;18543;50.848;4.596;2022-08-21T01:02:06;6.18;;;2.72;;
32026;SDS011;18543;50.848;4.596;2022-08-21T01:04:34;5.88;;;2.67;;
32026;SDS011;18543;50.848;4.596;2022-08-21T01:07:01;6.72;;;2.83;;
32026;SDS011;18543;50.848;4.596;2022-08-21T01:09:30;6.43;;;2.83;;
32026;SDS011;18543;50.848;4.596;2022-08-21T01:11:58;4.95;;;2.75;;
32026;SDS011;18543;50.848;4.596;2022-08-21T01:14:28;6.27;;;3.00;;
32026;SDS011;18543;50.848;4.596;2022-08-21T01:16:56;5.60;;;2.90;;
32026;SDS011;18543;50.848;4.596;2022-08-21T01:19:25;5.20;;;2.72;;
32026;SDS011;18543;50.848;4.596;2022-08-21T01:21:53;4.50;;;2.60;;
32026;SDS011;18543;50.848;4.596;2022-08-21T01:24:20;4.30;;;2.63;;
32026;SDS011;18543;50.848;4.596;2022-08-21T01:26:51;4.00;;;2.83;;
32026;SDS011;18543;50.848;4.596;2022-08-21T01:32:04;5.00;;;3.00;;
32026;SDS011;18543;50.848;4.596;2022-08-21T01:34:34;5.47;;;2.80;;
32026;SDS011;18543;50.848;4.596;2022-08-21T01:37:04;3.38;;;2.60;;
32026;SDS011;18543;50.848;4.596;2022-08-21T01:39:32;6.40;;;2.72;;
32026;SDS011;18543;50.848;4.596;2022-08-21T01:42:01;5.50;;;2.70;;
32026;SDS011;18543;50.848;4.596;2022-08-21T01:44:29;4.10;;;2.97;;
32026;SDS011;18543;50.848;4.596;2022-08-21T01:46:57;4.07;;;2.90;;
32026;SDS011;18543;50.848;4.596;2022-08-21T01:49:27;4.78;;;2.85;;
32026;SDS011;18543;50.848;4.596;2022-08-21T01:51:57;5.88;;;2.80;;
32026;SDS011;18543;50.848;4.596;2022-08-21T01:54:23;4.70;;;2.88;;
32026;SDS011;18543;50.848;4.596;2022-08-21T01:56:51;5.75;;;2.42;;
32026;SDS011;18543;50.848;4.596;2022-08-21T01:59:22;7.13;;;3.20;;
32026;SDS011;18543;50.848;4.596;2022-08-21T02:01:50;4.43;;;2.50;;
32026;SDS011;18543;50.848;4.596;2022-08-21T02:04:20;5.10;;;2.67;;
32026;SDS011;18543;50.848;4.596;2022-08-21T02:06:47;5.10;;;2.90;;
32026;SDS011;18543;50.848;4.596;2022-08-21T02:09:17;4.68;;;3.08;;
32026;SDS011;18543;50.848;4.596;2022-08-21T02:11:49;8.60;;;3.05;;
32026;SDS011;18543;50.848;4.596;2022-08-21T02:14:17;5.82;;;2.70;;
32026;SDS011;18543;50.848;4.596;2022-08-21T02:16:57;6.95;;;2.92;;
32026;SDS011;18543;50.848;4.596;2022-08-21T02:19:34;5.50;;;3.10;;
32026;SDS011;18543;50.848;4.596;2022-08-21T02:22:08;6.32;;;3.10;;
32026;SDS011;18543;50.848;4.596;2022-08-21T02:24:36;5.82;;;3.00;;
32026;SDS011;18543;50.848;4.596;2022-08-21T02:27:21;4.57;;;2.90;;
32026;SDS011;18543;50.848;4.596;2022-08-21T02:29:52;5.13;;;2.60;;
32026;SDS011;18543;50.848;4.596;2022-08-21T02:32:23;4.45;;;2.55;;
32026;SDS011;18543;50.848;4.596;2022-08-21T02:34:50;4.67;;;2.70;;
32026;SDS011;18543;50.848;4.596;2022-08-21T02:37:17;6.72;;;2.58;;
32026;SDS011;18543;50.848;4.596;2022-08-21T02:39:44;5.90;;;2.50;;
32026;SDS011;18543;50.848;4.596;2022-08-21T02:42:11;7.25;;;2.70;;
32026;SDS011;18543;50.848;4.596;2022-08-21T02:44:38;4.68;;;2.67;;
32026;SDS011;18543;50.848;4.596;2022-08-21T02:47:07;4.53;;;2.75;;
32026;SDS011;18543;50.848;4.596;2022-08-21T02:49:34;5.13;;;2.80;;
32026;SDS011;18543;50.848;4.596;2022-08-21T02:52:01;3.95;;;2.55;;
32026;SDS011;18543;50.848;4.596;2022-08-21T02:54:29;4.68;;;2.58;;
32026;SDS011;18543;50.848;4.596;2022-08-21T02:56:55;4.75;;;2.50;;
32026;SDS011;18543;50.848;4.596;2022-08-21T02:59:23;4.50;;;2.80;;
32026;SDS011;18543;50.848;4.596;2022-08-21T03:01:50;5.43;;;2.80;;
32026;SDS011;18543;50.848;4.596;2022-08-21T03:04:17;5.67;;;2.77;;
32026;SDS011;18543;50.848;4.596;2022-08-21T03:06:44;4.07;;;2.70;;
32026;SDS011;18543;50.848;4.596;2022-08-21T03:09:11;5.90;;;2.88;;
32026;SDS011;18543;50.848;4.596;2022-08-21T03:11:39;4.38;;;2.78;;
32026;SDS011;18543;50.848;4.596;2022-08-21T03:14:06;5.87;;;2.80;;
32026;SDS011;18543;50.848;4.596;2022-08-21T03:16:33;5.47;;;2.35;;
32026;SDS011;18543;50.848;4.596;2022-08-21T03:19:01;3.92;;;2.50;;
32026;SDS011;18543;50.848;4.596;2022-08-21T03:23:56;3.20;;;2.42;;
32026;SDS011;18543;50.848;4.596;2022-08-21T03:26:23;3.58;;;2.50;;
32026;SDS011;18543;50.848;4.596;2022-08-21T03:28:53;4.15;;;2.38;;
32026;SDS011;18543;50.848;4.596;2022-08-21T03:31:19;3.03;;;2.33;;
32026;SDS011;18543;50.848;4.596;2022-08-21T03:33:47;3.67;;;2.20;;
32026;SDS011;18543;50.848;4.596;2022-08-21T03:36:14;6.57;;;2.30;;
32026;SDS011;18543;50.848;4.596;2022-08-21T03:38:42;3.17;;;2.10;;
32026;SDS011;18543;50.848;4.596;2022-08-21T03:41:09;5.70;;;2.63;;
32026;SDS011;18543;50.848;4.596;2022-08-21T03:43:35;3.35;;;2.22;;
32026;SDS011;18543;50.848;4.596;2022-08-21T03:46:03;4.97;;;2.65;;
32026;SDS011;18543;50.848;4.596;2022-08-21T03:48:34;9.88;;;2.42;;
32026;SDS011;18543;50.848;4.596;2022-08-21T03:51:02;3.50;;;2.40;;
32026;SDS011;18543;50.848;4.596;2022-08-21T03:53:30;4.30;;;2.72;;
32026;SDS011;18543;50.848;4.596;2022-08-21T03:55:57;4.47;;;2.63;;
32026;SDS011;18543;50.848;4.596;2022-08-21T03:58:26;4.45;;;2.50;;
32026;SDS011;18543;50.848;4.596;2022-08-21T04:00:55;6.13;;;2.78;;
32026;SDS011;18543;50.848;4.596;2022-08-21T04:03:25;4.60;;;2.40;;
32026;SDS011;18543;50.848;4.596;2022-08-21T04:05:57;5.55;;;2.80;;
32026;SDS011;18543;50.848;4.596;2022-08-21T04:08:24;3.95;;;2.65;;
32026;SDS011;18543;50.848;4.596;2022-08-21T04:10:52;3.90;;;2.40;;
32026;SDS011;18543;50.848;4.596;2022-08-21T04:13:22;7.30;;;2.75;;
32026;SDS011;18543;50.848;4.596;2022-08-21T04:15:50;5.45;;;2.70;;
32026;SDS011;18543;50.848;4.596;2022-08-21T04:18:17;3.85;;;2.78;;
32026;SDS011;18543;50.848;4.596;2022-08-21T04:20:44;4.93;;;2.70;;
32026;SDS011;18543;50.848;4.596;2022-08-21T04:23:16;4.82;;;2.63;;
32026;SDS011;18543;50.848;4.596;2022-08-21T04:25:49;4.78;;;2.80;;
32026;SDS011;18543;50.848;4.596;2022-08-21T04:28:20;4.28;;;2.55;;
32026;SDS011;18543;50.848;4.596;2022-08-21T04:30:48;2.85;;;2.00;;
32026;SDS011;18543;50.848;4.596;2022-08-21T04:33:17;4.50;;;2.53;;
32026;SDS011;18543;50.848;4.596;2022-08-21T04:35:53;5.34;;;2.58;;
32026;SDS011;18543;50.848;4.596;2022-08-21T04:38:20;4.65;;;2.78;;
32026;SDS011;18543;50.848;4.596;2022-08-21T04:40:47;3.97;;;2.67;;
32026;SDS011;18543;50.848;4.596;2022-08-21T04:43:16;4.45;;;2.53;;
32026;SDS011;18543;50.848;4.596;2022-08-21T04:45:45;6.57;;;2.70;;
32026;SDS011;18543;50.848;4.596;2022-08-21T04:48:14;5.68;;;2.65;;
32026;SDS011;18543;50.848;4.596;2022-08-21T04:55:49;4.07;;;2.22;;
32026;SDS011;18543;50.848;4.596;2022-08-21T04:58:20;6.55;;;2.30;;
32026;SDS011;18543;50.848;4.596;2022-08-21T05:00:51;2.88;;;2.35;;
32026;SDS011;18543;50.848;4.596;2022-08-21T05:03:22;4.95;;;2.50;;
32026;SDS011;18543;50.848;4.596;2022-08-21T05:05:50;4.85;;;2.33;;
32026;SDS011;18543;50.848;4.596;2022-08-21T05:08:20;8.32;;;2.95;;
32026;SDS011;18543;50.848;4.596;2022-08-21T05:10:50;3.25;;;2.60;;
32026;SDS011;18543;50.848;4.596;2022-08-21T05:13:24;4.28;;;2.67;;
32026;SDS011;18543;50.848;4.596;2022-08-21T05:15:52;4.60;;;2.40;;
32026;SDS011;18543;50.848;4.596;2022-08-21T05:18:19;4.07;;;2.57;;
32026;SDS011;18543;50.848;4.596;2022-08-21T05:20:48;4.80;;;2.38;;
32026;SDS011;18543;50.848;4.596;2022-08-21T05:23:18;7.53;;;2.70;;
32026;SDS011;18543;50.848;4.596;2022-08-21T05:25:47;4.53;;;2.60;;
32026;SDS011;18543;50.848;4.596;2022-08-21T05:28:14;6.00;;;2.58;;
32026;SDS011;18543;50.848;4.596;2022-08-21T05:30:41;4.13;;;2.60;;
32026;SDS011;18543;50.848;4.596;2022-08-21T05:33:08;5.18;;;2.40;;
32026;SDS011;18543;50.848;4.596;2022-08-21T05:35:35;5.25;;;2.75;;
32026;SDS011;18543;50.848;4.596;2022-08-21T05:38:04;6.22;;;2.85;;
32026;SDS011;18543;50.848;4.596;2022-08-21T05:40:46;3.80;;;2.50;;
32026;SDS011;18543;50.848;4.596;2022-08-21T05:43:13;4.72;;;2.67;;
32026;SDS011;18543;50.848;4.596;2022-08-21T05:45:44;6.22;;;2.78;;
32026;SDS011;18543;50.848;4.596;2022-08-21T05:48:19;4.78;;;2.70;;
32026;SDS011;18543;50.848;4.596;2022-08-21T05:55:46;4.85;;;3.08;;
32026;SDS011;18543;50.848;4.596;2022-08-21T05:58:14;5.93;;;2.75;;
32026;SDS011;18543;50.848;4.596;2022-08-21T06:00:46;5.13;;;2.67;;
32026;SDS011;18543;50.848;4.596;2022-08-21T06:03:15;3.38;;;2.65;;
32026;SDS011;18543;50.848;4.596;2022-08-21T06:05:47;5.72;;;3.15;;
32026;SDS011;18543;50.848;4.596;2022-08-21T06:08:14;7.95;;;3.13;;
32026;SDS011;18543;50.848;4.596;2022-08-21T06:10:43;4.50;;;2.50;;
32026;SDS011;18543;50.848;4.596;2022-08-21T06:15:38;5.70;;;2.72;;
32026;SDS011;18543;50.848;4.596;2022-08-21T06:18:05;7.40;;;3.10;;
32026;SDS011;18543;50.848;4.596;2022-08-21T06:20:33;4.30;;;2.65;;
32026;SDS011;18543;50.848;4.596;2022-08-21T06:23:00;6.50;;;2.53;;
32026;SDS011;18543;50.848;4.596;2022-08-21T06:25:27;5.43;;;2.33;;
32026;SDS011;18543;50.848;4.596;2022-08-21T06:28:04;5.60;;;2.20;;
32026;SDS011;18543;50.848;4.596;2022-08-21T06:30:38;3.67;;;2.20;;
32026;SDS011;18543;50.848;4.596;2022-08-21T06:33:05;4.20;;;1.90;;
32026;SDS011;18543;50.848;4.596;2022-08-21T06:35:33;4.32;;;2.40;;
32026;SDS011;18543;50.848;4.596;2022-08-21T06:38:01;4.82;;;2.00;;
32026;SDS011;18543;50.848;4.596;2022-08-21T06:40:28;2.40;;;1.70;;
32026;SDS011;18543;50.848;4.596;2022-08-21T06:43:13;3.00;;;1.75;;
32026;SDS011;18543;50.848;4.596;2022-08-21T06:45:42;3.10;;;1.70;;
32026;SDS011;18543;50.848;4.596;2022-08-21T06:48:10;4.40;;;1.60;;
32026;SDS011;18543;50.848;4.596;2022-08-21T06:50:43;4.20;;;1.70;;
32026;SDS011;18543;50.848;4.596;2022-08-21T06:53:14;3.50;;;1.90;;
32026;SDS011;18543;50.848;4.596;2022-08-21T06:55:43;3.65;;;1.50;;
32026;SDS011;18543;50.848;4.596;2022-08-21T06:58:10;6.78;;;1.98;;
32026;SDS011;18543;50.848;4.596;2022-08-21T07:00:41;2.90;;;1.77;;
32026;SDS011;18543;50.848;4.596;2022-08-21T07:03:20;3.80;;;1.90;;
32026;SDS011;18543;50.848;4.596;2022-08-21T07:05:53;3.40;;;1.73;;
32026;SDS011;18543;50.848;4.596;2022-08-21T07:08:25;4.45;;;1.70;;
32026;SDS011;18543;50.848;4.596;2022-08-21T07:10:53;3.28;;;1.58;;
32026;SDS011;18543;50.848;4.596;2022-08-21T07:13:22;4.88;;;1.60;;
32026;SDS011;18543;50.848;4.596;2022-08-21T07:15:49;3.25;;;1.80;;
32026;SDS011;18543;50.848;4.596;2022-08-21T07:18:16;4.00;;;1.70;;
32026;SDS011;18543;50.848;4.596;2022-08-21T07:20:43;2.85;;;1.50;;
32026;SDS011;18543;50.848;4.596;2022-08-21T07:23:33;3.13;;;1.90;;
32026;SDS011;18543;50.848;4.596;2022-08-21T07:25:59;3.55;;;1.60;;
32026;SDS011;18543;50.848;4.596;2022-08-21T07:28:27;3.83;;;1.55;;
32026;SDS011;18543;50.848;4.596;2022-08-21T07:30:57;4.72;;;1.70;;
32026;SDS011;18543;50.848;4.596;2022-08-21T07:33:28;3.30;;;1.80;;
32026;SDS011;18543;50.848;4.596;2022-08-21T07:35:56;4.05;;;2.03;;
32026;SDS011;18543;50.848;4.596;2022-08-21T07:38:23;3.58;;;1.90;;
32026;SDS011;18543;50.848;4.596;2022-08-21T07:40:51;2.97;;;1.80;;
32026;SDS011;18543;50.848;4.596;2022-08-21T07:43:22;3.20;;;1.77;;
32026;SDS011;18543;50.848;4.596;2022-08-21T07:45:49;3.95;;;1.85;;
32026;SDS011;18543;50.848;4.596;2022-08-21T07:48:15;3.88;;;1.83;;
32026;SDS011;18543;50.848;4.596;2022-08-21T07:50:43;5.27;;;1.87;;
32026;SDS011;18543;50.848;4.596;2022-08-21T07:53:10;5.57;;;1.90;;
32026;SDS011;18543;50.848;4.596;2022-08-21T07:55:39;5.30;;;1.75;;
32026;SDS011;18543;50.848;4.596;2022-08-21T07:58:06;4.60;;;1.98;;
32026;SDS011;18543;50.848;4.596;2022-08-21T08:00:34;4.40;;;1.60;;
32026;SDS011;18543;50.848;4.596;2022-08-21T08:03:01;4.53;;;1.88;;
32026;SDS011;18543;50.848;4.596;2022-08-21T08:05:31;6.57;;;1.90;;
32026;SDS011;18543;50.848;4.596;2022-08-21T08:07:59;4.13;;;1.58;;
32026;SDS011;18543;50.848;4.596;2022-08-21T08:10:26;4.43;;;1.77;;
32026;SDS011;18543;50.848;4.596;2022-08-21T08:12:54;7.70;;;1.97;;
32026;SDS011;18543;50.848;4.596;2022-08-21T08:15:22;7.68;;;1.90;;
32026;SDS011;18543;50.848;4.596;2022-08-21T08:17:51;6.78;;;2.00;;
32026;SDS011;18543;50.848;4.596;2022-08-21T08:20:21;10.35;;;2.40;;
32026;SDS011;18543;50.848;4.596;2022-08-21T08:22:51;5.22;;;1.80;;
32026;SDS011;18543;50.848;4.596;2022-08-21T08:25:20;4.05;;;1.50;;
32026;SDS011;18543;50.848;4.596;2022-08-21T08:27:49;5.45;;;1.85;;
32026;SDS011;18543;50.848;4.596;2022-08-21T08:30:16;4.45;;;1.90;;
32026;SDS011;18543;50.848;4.596;2022-08-21T08:32:45;5.10;;;2.22;;
32026;SDS011;18543;50.848;4.596;2022-08-21T08:35:13;4.82;;;1.73;;
32026;SDS011;18543;50.848;4.596;2022-08-21T08:37:41;8.10;;;2.10;;
32026;SDS011;18543;50.848;4.596;2022-08-21T08:40:20;8.80;;;1.90;;
32026;SDS011;18543;50.848;4.596;2022-08-21T08:42:55;6.93;;;2.45;;
32026;SDS011;18543;50.848;4.596;2022-08-21T08:45:24;5.00;;;2.10;;
32026;SDS011;18543;50.848;4.596;2022-08-21T08:47:56;4.55;;;1.92;;
32026;SDS011;18543;50.848;4.596;2022-08-21T08:50:51;8.55;;;2.65;;
32026;SDS011;18543;50.848;4.596;2022-08-21T08:53:22;5.20;;;2.10;;
32026;SDS011;18543;50.848;4.596;2022-08-21T08:56:00;5.45;;;1.88;;
32026;SDS011;18543;50.848;4.596;2022-08-21T08:58:30;6.05;;;1.95;;
32026;SDS011;18543;50.848;4.596;2022-08-21T09:01:00;8.93;;;2.00;;
32026;SDS011;18543;50.848;4.596;2022-08-21T09:03:34;6.32;;;2.00;;
32026;SDS011;18543;50.848;4.596;2022-08-21T09:14:22;6.85;;;2.05;;
32026;SDS011;18543;50.848;4.596;2022-08-21T09:16:59;6.53;;;2.03;;
32026;SDS011;18543;50.848;4.596;2022-08-21T09:25:25;5.05;;;2.13;;
32026;SDS011;18543;50.848;4.596;2022-08-21T09:27:54;9.18;;;2.10;;
32026;SDS011;18543;50.848;4.596;2022-08-21T09:30:29;7.50;;;2.20;;
32026;SDS011;18543;50.848;4.596;2022-08-21T09:32:58;6.93;;;2.40;;
32026;SDS011;18543;50.848;4.596;2022-08-21T09:35:26;4.10;;;2.13;;
32026;SDS011;18543;50.848;4.596;2022-08-21T09:37:58;6.85;;;2.28;;
32026;SDS011;18543;50.848;4.596;2022-08-21T09:43:10;7.95;;;2.22;;
32026;SDS011;18543;50.848;4.596;2022-08-21T09:45:41;9.07;;;2.10;;
32026;SDS011;18543;50.848;4.596;2022-08-21T09:50:42;8.82;;;2.25;;
32026;SDS011;18543;50.848;4.596;2022-08-21T09:56:00;8.05;;;2.38;;
32026;SDS011;18543;50.848;4.596;2022-08-21T09:58:51;7.13;;;2.38;;
32026;SDS011;18543;50.848;4.596;2022-08-21T10:01:20;7.45;;;2.10;;
32026;SDS011;18543;50.848;4.596;2022-08-21T10:04:11;5.43;;;1.75;;
32026;SDS011;18543;50.848;4.596;2022-08-21T10:06:39;6.18;;;1.90;;
32026;SDS011;18543;50.848;4.596;2022-08-21T10:09:11;6.63;;;2.35;;
32026;SDS011;18543;50.848;4.596;2022-08-21T10:12:11;7.13;;;1.85;;
32026;SDS011;18543;50.848;4.596;2022-08-21T10:20:28;8.18;;;2.20;;
32026;SDS011;18543;50.848;4.596;2022-08-21T10:26:02;7.55;;;2.08;;
32026;SDS011;18543;50.848;4.596;2022-08-21T10:31:46;5.70;;;2.45;;
32026;SDS011;18543;50.848;4.596;2022-08-21T10:34:48;7.55;;;1.92;;
32026;SDS011;18543;50.848;4.596;2022-08-21T10:37:34;9.93;;;2.33;;
32026;SDS011;18543;50.848;4.596;2022-08-21T10:40:11;6.70;;;1.85;;
32026;SDS011;18543;50.848;4.596;2022-08-21T10:47:53;7.78;;;1.98;;
32026;SDS011;18543;50.848;4.596;2022-08-21T10:53:22;9.55;;;2.35;;
32026;SDS011;18543;50.848;4.596;2022-08-21T11:04:34;6.78;;;2.85;;
32026;SDS011;18543;50.848;4.596;2022-08-21T11:10:02;10.50;;;2.45;;
32026;SDS011;18543;50.848;4.596;2022-08-21T11:12:40;10.57;;;2.45;;
32026;SDS011;18543;50.848;4.596;2022-08-21T11:18:10;11.70;;;2.50;;
32026;SDS011;18543;50.848;4.596;2022-08-21T11:20:56;8.32;;;2.30;;
32026;SDS011;18543;50.848;4.596;2022-08-21T11:23:49;8.25;;;2.22;;
32026;SDS011;18543;50.848;4.596;2022-08-21T11:26:37;7.47;;;2.28;;
32026;SDS011;18543;50.848;4.596;2022-08-21T11:29:28;9.75;;;1.98;;
32026;SDS011;18543;50.848;4.596;2022-08-21T11:32:01;7.47;;;2.72;;
32026;SDS011;18543;50.848;4.596;2022-08-21T11:40:18;10.18;;;2.03;;
32026;SDS011;18543;50.848;4.596;2022-08-21T11:42:55;6.35;;;2.00;;
32026;SDS011;18543;50.848;4.596;2022-08-21T11:51:04;10.48;;;2.30;;
32026;SDS011;18543;50.848;4.596;2022-08-21T11:53:38;7.57;;;2.08;;
32026;SDS011;18543;50.848;4.596;2022-08-21T11:56:30;6.65;;;2.30;;
32026;SDS011;18543;50.848;4.596;2022-08-21T11:59:16;7.05;;;2.40;;
32026;SDS011;18543;50.848;4.596;2022-08-21T12:01:48;6.63;;;2.00;;
32026;SDS011;18543;50.848;4.596;2022-08-21T12:04:31;7.85;;;2.40;;
32026;SDS011;18543;50.848;4.596;2022-08-21T12:07:10;9.60;;;2.72;;
32026;SDS011;18543;50.848;4.596;2022-08-21T12:09:56;6.82;;;2.47;;
32026;SDS011;18543;50.848;4.596;2022-08-21T12:15:03;8.50;;;2.63;;
32026;SDS011;18543;50.848;4.596;2022-08-21T12:17:35;6.85;;;2.35;;
32026;SDS011;18543;50.848;4.596;2022-08-21T12:22:50;7.13;;;2.20;;
32026;SDS011;18543;50.848;4.596;2022-08-21T12:25:35;8.00;;;2.30;;
32026;SDS011;18543;50.848;4.596;2022-08-21T12:28:11;9.27;;;2.80;;
32026;SDS011;18543;50.848;4.596;2022-08-21T12:30:47;7.15;;;2.28;;
32026;SDS011;18543;50.848;4.596;2022-08-21T12:33:20;9.30;;;2.27;;
32026;SDS011;18543;50.848;4.596;2022-08-21T12:35:51;9.38;;;2.17;;
32026;SDS011;18543;50.848;4.596;2022-08-21T12:38:29;9.93;;;2.47;;
32026;SDS011;18543;50.848;4.596;2022-08-21T12:41:21;7.28;;;2.40;;
32026;SDS011;18543;50.848;4.596;2022-08-21T12:44:00;7.38;;;2.45;;
32026;SDS011;18543;50.848;4.596;2022-08-21T12:46:37;7.72;;;2.40;;
32026;SDS011;18543;50.848;4.596;2022-08-21T12:51:57;12.32;;;2.60;;
32026;SDS011;18543;50.848;4.596;2022-08-21T12:54:46;7.00;;;2.15;;
32026;SDS011;18543;50.848;4.596;2022-08-21T12:57:17;7.88;;;2.15;;
32026;SDS011;18543;50.848;4.596;2022-08-21T12:59:56;7.25;;;2.38;;
32026;SDS011;18543;50.848;4.596;2022-08-21T13:02:31;6.65;;;2.20;;
32026;SDS011;18543;50.848;4.596;2022-08-21T13:05:02;7.22;;;2.10;;
32026;SDS011;18543;50.848;4.596;2022-08-21T13:07:32;8.68;;;2.28;;
32026;SDS011;18543;50.848;4.596;2022-08-21T13:10:04;6.63;;;2.58;;
32026;SDS011;18543;50.848;4.596;2022-08-21T13:12:42;7.75;;;2.42;;
32026;SDS011;18543;50.848;4.596;2022-08-21T13:15:15;7.53;;;2.55;;
32026;SDS011;18543;50.848;4.596;2022-08-21T13:17:58;6.43;;;1.90;;
32026;SDS011;18543;50.848;4.596;2022-08-21T13:20:33;6.90;;;2.10;;
32026;SDS011;18543;50.848;4.596;2022-08-21T13:23:18;5.93;;;2.00;;
32026;SDS011;18543;50.848;4.596;2022-08-21T13:25:49;4.85;;;2.10;;
32026;SDS011;18543;50.848;4.596;2022-08-21T13:28:16;7.40;;;2.10;;
32026;SDS011;18543;50.848;4.596;2022-08-21T13:33:14;6.25;;;2.22;;
32026;SDS011;18543;50.848;4.596;2022-08-21T13:35:49;6.80;;;2.20;;
32026;SDS011;18543;50.848;4.596;2022-08-21T13:38:18;4.68;;;1.52;;
32026;SDS011;18543;50.848;4.596;2022-08-21T13:40:54;11.10;;;2.15;;
32026;SDS011;18543;50.848;4.596;2022-08-21T13:43:34;4.82;;;2.00;;
32026;SDS011;18543;50.848;4.596;2022-08-21T13:46:06;9.13;;;2.08;;
32026;SDS011;18543;50.848;4.596;2022-08-21T13:48:37;6.00;;;1.77;;
32026;SDS011;18543;50.848;4.596;2022-08-21T13:51:05;6.63;;;2.25;;
32026;SDS011;18543;50.848;4.596;2022-08-21T13:56:03;8.10;;;2.33;;
32026;SDS011;18543;50.848;4.596;2022-08-21T13:58:32;6.13;;;2.00;;
32026;SDS011;18543;50.848;4.596;2022-08-21T14:01:18;4.72;;;2.00;;
32026;SDS011;18543;50.848;4.596;2022-08-21T14:04:02;5.57;;;1.77;;
32026;SDS011;18543;50.848;4.596;2022-08-21T14:06:34;6.35;;;1.98;;
32026;SDS011;18543;50.848;4.596;2022-08-21T14:09:13;3.95;;;1.90;;
32026;SDS011;18543;50.848;4.596;2022-08-21T14:11:56;6.65;;;2.08;;
32026;SDS011;18543;50.848;4.596;2022-08-21T14:14:27;5.65;;;1.73;;
32026;SDS011;18543;50.848;4.596;2022-08-21T14:17:00;6.35;;;2.20;;
32026;SDS011;18543;50.848;4.596;2022-08-21T14:19:49;6.45;;;2.10;;
32026;SDS011;18543;50.848;4.596;2022-08-21T14:25:12;6.10;;;1.70;;
32026;SDS011;18543;50.848;4.596;2022-08-21T14:30:31;4.97;;;1.80;;
32026;SDS011;18543;50.848;4.596;2022-08-21T14:33:04;7.60;;;1.95;;
32026;SDS011;18543;50.848;4.596;2022-08-21T14:35:39;5.28;;;1.67;;
32026;SDS011;18543;50.848;4.596;2022-08-21T14:38:16;5.43;;;1.60;;
32026;SDS011;18543;50.848;4.596;2022-08-21T14:40:47;6.70;;;1.83;;
32026;SDS011;18543;50.848;4.596;2022-08-21T14:43:22;5.45;;;1.90;;
32026;SDS011;18543;50.848;4.596;2022-08-21T14:45:49;4.20;;;1.90;;
32026;SDS011;18543;50.848;4.596;2022-08-21T14:48:16;4.90;;;1.80;;
32026;SDS011;18543;50.848;4.596;2022-08-21T14:50:43;5.78;;;1.90;;
32026;SDS011;18543;50.848;4.596;2022-08-21T14:53:10;6.80;;;2.13;;
32026;SDS011;18543;50.848;4.596;2022-08-21T14:55:38;4.47;;;1.85;;
32026;SDS011;18543;50.848;4.596;2022-08-21T14:58:25;3.30;;;1.50;;
32026;SDS011;18543;50.848;4.596;2022-08-21T15:00:52;5.50;;;1.60;;
32026;SDS011;18543;50.848;4.596;2022-08-21T15:03:24;6.22;;;2.28;;
32026;SDS011;18543;50.848;4.596;2022-08-21T15:05:54;5.07;;;1.98;;
32026;SDS011;18543;50.848;4.596;2022-08-21T15:08:21;4.75;;;1.67;;
32026;SDS011;18543;50.848;4.596;2022-08-21T15:10:49;5.75;;;1.55;;
32026;SDS011;18543;50.848;4.596;2022-08-21T15:16:04;4.40;;;1.70;;
32026;SDS011;18543;50.848;4.596;2022-08-21T15:18:31;6.70;;;1.80;;
32026;SDS011;18543;50.848;4.596;2022-08-21T15:20:58;3.72;;;1.50;;
32026;SDS011;18543;50.848;4.596;2022-08-21T15:23:25;4.75;;;1.90;;
32026;SDS011;18543;50.848;4.596;2022-08-21T15:25:55;3.95;;;1.60;;
32026;SDS011;18543;50.848;4.596;2022-08-21T15:28:28;4.43;;;1.80;;
32026;SDS011;18543;50.848;4.596;2022-08-21T15:30:57;4.25;;;1.60;;
32026;SDS011;18543;50.848;4.596;2022-08-21T15:33:25;3.78;;;1.70;;
32026;SDS011;18543;50.848;4.596;2022-08-21T15:35:55;4.95;;;1.98;;
32026;SDS011;18543;50.848;4.596;2022-08-21T15:38:22;3.28;;;1.60;;
32026;SDS011;18543;50.848;4.596;2022-08-21T15:40:50;3.35;;;1.77;;
32026;SDS011;18543;50.848;4.596;2022-08-21T15:43:30;5.95;;;1.70;;
32026;SDS011;18543;50.848;4.596;2022-08-21T15:46:19;6.25;;;1.70;;
32026;SDS011;18543;50.848;4.596;2022-08-21T15:48:48;4.93;;;2.10;;
32026;SDS011;18543;50.848;4.596;2022-08-21T15:51:16;3.42;;;1.77;;
32026;SDS011;18543;50.848;4.596;2022-08-21T15:56:22;4.70;;;1.90;;
32026;SDS011;18543;50.848;4.596;2022-08-21T15:58:57;6.05;;;2.00;;
32026;SDS011;18543;50.848;4.596;2022-08-21T16:01:27;4.90;;;1.70;;
32026;SDS011;18543;50.848;4.596;2022-08-21T16:04:09;3.47;;;1.70;;
32026;SDS011;18543;50.848;4.596;2022-08-21T16:06:40;4.70;;;1.70;;
32026;SDS011;18543;50.848;4.596;2022-08-21T16:09:22;4.72;;;1.70;;
32026;SDS011;18543;50.848;4.596;2022-08-21T16:11:51;4.95;;;1.58;;
32026;SDS011;18543;50.848;4.596;2022-08-21T16:14:19;4.53;;;1.60;;
32026;SDS011;18543;50.848;4.596;2022-08-21T16:16:46;3.72;;;1.70;;
32026;SDS011;18543;50.848;4.596;2022-08-21T16:19:13;5.32;;;2.00;;
32026;SDS011;18543;50.848;4.596;2022-08-21T16:21:40;5.43;;;1.90;;
32026;SDS011;18543;50.848;4.596;2022-08-21T16:24:07;4.82;;;1.98;;
32026;SDS011;18543;50.848;4.596;2022-08-21T16:26:34;6.20;;;1.90;;
32026;SDS011;18543;50.848;4.596;2022-08-21T16:29:01;4.50;;;2.00;;
32026;SDS011;18543;50.848;4.596;2022-08-21T16:31:29;4.60;;;1.60;;
32026;SDS011;18543;50.848;4.596;2022-08-21T16:33:58;5.13;;;1.80;;
32026;SDS011;18543;50.848;4.596;2022-08-21T16:36:25;5.28;;;1.80;;
32026;SDS011;18543;50.848;4.596;2022-08-21T16:38:53;4.88;;;1.45;;
32026;SDS011;18543;50.848;4.596;2022-08-21T16:41:22;3.13;;;1.70;;
32026;SDS011;18543;50.848;4.596;2022-08-21T16:43:50;4.30;;;1.92;;
32026;SDS011;18543;50.848;4.596;2022-08-21T16:46:18;2.75;;;1.52;;
32026;SDS011;18543;50.848;4.596;2022-08-21T16:48:46;6.40;;;2.03;;
32026;SDS011;18543;50.848;4.596;2022-08-21T16:51:16;3.53;;;1.60;;
32026;SDS011;18543;50.848;4.596;2022-08-21T16:53:43;5.88;;;1.77;;
32026;SDS011;18543;50.848;4.596;2022-08-21T16:56:11;3.47;;;1.77;;
32026;SDS011;18543;50.848;4.596;2022-08-21T16:58:40;7.70;;;2.28;;
32026;SDS011;18543;50.848;4.596;2022-08-21T17:01:13;6.07;;;2.17;;
32026;SDS011;18543;50.848;4.596;2022-08-21T17:03:44;6.93;;;2.10;;
32026;SDS011;18543;50.848;4.596;2022-08-21T17:06:13;5.55;;;2.05;;
32026;SDS011;18543;50.848;4.596;2022-08-21T17:08:43;5.72;;;2.20;;